Time;durP1;ratioP1;P1;durP2;ratioP2;P2;SDS_P1;SDS_P2;PMS_P1;PMS_P2;Temp;Humidity;BMP_temperature;BMP_pressure;BME280_temperature;BME280_humidity;BME280_pressure;Samples;Min_cycle;Max_cycle;Signal;HPM_P1;HPM_P2
2021/11/30 00:00:45;;;;;;;16.27;14.57;;;;;;;;;;2060573;28;20169;-66
2021/11/30 00:01:45;;;;;;;21.13;15.93;;;;;;;;;;2063946;28;20685;-64
2021/11/30 00:02:46;;;;;;;18.80;15.67;;;;;;;;;;2072269;28;20153;-64
2021/11/30 00:03:46;;;;;;;16.37;14.67;;;;;;;;;;2071400;28;20169;-64
2021/11/30 00:04:46;;;;;;;16.10;14.40;;;;;;;;;;2071799;28;20168;-61
2021/11/30 00:05:47;;;;;;;18.20;15.37;;;;;;;;;;2071820;28;20513;-64
2021/11/30 00:06:48;;;;;;;17.40;15.60;;;;;;;;;;2072109;28;20655;-65
2021/11/30 00:07:51;;;;;;;16.83;14.80;;;;;;;;;;2061357;28;20790;-66
2021/11/30 00:08:58;;;;;;;17.20;15.20;;;;;;;;;;2072561;28;20200;-64
2021/11/30 00:11:09;;;;;;;17.37;14.37;;;;;;;;;;2058625;28;20173;-65
2021/11/30 00:12:12;;;;;;;17.30;15.50;;;;;;;;;;2064969;28;20169;-65
2021/11/30 00:13:13;;;;;;;17.40;15.10;;;;;;;;;;2071618;28;20181;-64
2021/11/30 00:14:14;;;;;;;16.83;15.07;;;;;;;;;;2068961;28;20173;-65
2021/11/30 00:15:14;;;;;;;15.73;14.07;;;;;;;;;;2064690;28;20200;-63
2021/11/30 00:16:16;;;;;;;15.03;12.73;;;;;;;;;;2064347;28;20186;-63
2021/11/30 00:17:17;;;;;;;15.20;13.13;;;;;;;;;;2057615;28;20168;-64
2021/11/30 00:18:17;;;;;;;16.10;14.60;;;;;;;;;;2072036;28;20256;-66
2021/11/30 00:19:18;;;;;;;14.40;13.03;;;;;;;;;;2064941;28;20212;-65
2021/11/30 00:20:18;;;;;;;18.07;14.83;;;;;;;;;;2064380;28;20276;-64
2021/11/30 00:21:19;;;;;;;10.93;9.60;;;;;;;;;;2064814;28;20269;-65
2021/11/30 00:22:20;;;;;;;14.27;12.83;;;;;;;;;;2071304;28;20350;-64
2021/11/30 00:23:21;;;;;;;14.43;12.93;;;;;;;;;;2072653;28;20608;-66
2021/11/30 00:24:23;;;;;;;14.70;13.20;;;;;;;;;;2063390;28;20177;-62
2021/11/30 00:25:24;;;;;;;17.03;13.13;;;;;;;;;;2060448;28;20843;-65
2021/11/30 00:26:24;;;;;;;14.13;11.70;;;;;;;;;;2071789;28;20175;-65
2021/11/30 00:27:25;;;;;;;15.50;13.90;;;;;;;;;;2071686;28;20180;-64
2021/11/30 00:28:26;;;;;;;14.70;13.10;;;;;;;;;;2059579;28;20315;-65
2021/11/30 00:29:27;;;;;;;15.23;13.73;;;;;;;;;;2063931;28;20185;-65
2021/11/30 00:30:27;;;;;;;13.07;11.80;;;;;;;;;;2072468;28;20224;-65
2021/11/30 00:31:28;;;;;;;14.70;13.17;;;;;;;;;;2068095;28;20192;-65
2021/11/30 00:32:28;;;;;;;15.03;13.53;;;;;;;;;;2064716;28;20236;-65
2021/11/30 00:33:29;;;;;;;13.97;12.47;;;;;;;;;;2067298;28;20677;-64
2021/11/30 00:34:29;;;;;;;14.97;13.40;;;;;;;;;;2064652;28;20188;-64
2021/11/30 00:35:30;;;;;;;14.57;13.07;;;;;;;;;;2064819;28;20166;-65
2021/11/30 00:36:31;;;;;;;15.00;13.30;;;;;;;;;;2073299;28;20177;-65
2021/11/30 00:37:31;;;;;;;15.30;13.80;;;;;;;;;;2072767;28;20176;-64
2021/11/30 00:38:31;;;;;;;14.83;13.30;;;;;;;;;;2068503;28;20170;-64
2021/11/30 00:39:32;;;;;;;15.27;13.87;;;;;;;;;;2064634;28;20240;-65
2021/11/30 00:40:37;;;;;;;16.40;13.13;;;;;;;;;;2064651;28;20686;-66
2021/11/30 00:41:40;;;;;;;13.83;12.53;;;;;;;;;;2064798;28;20158;-64
2021/11/30 00:42:40;;;;;;;13.13;11.87;;;;;;;;;;2065438;28;20189;-64
2021/11/30 00:43:41;;;;;;;17.33;12.53;;;;;;;;;;2065285;28;20657;-65
2021/11/30 00:44:43;;;;;;;14.80;13.07;;;;;;;;;;2065281;28;20188;-65
2021/11/30 00:45:58;;;;;;;15.40;12.67;;;;;;;;;;2064619;28;20173;-63
2021/11/30 00:46:59;;;;;;;13.30;11.63;;;;;;;;;;2064868;28;20181;-64
2021/11/30 00:47:59;;;;;;;13.93;12.63;;;;;;;;;;2066939;28;20178;-66
2021/11/30 00:49:00;;;;;;;12.20;11.00;;;;;;;;;;2074542;28;20523;-65
2021/11/30 00:50:03;;;;;;;12.77;11.50;;;;;;;;;;2085790;22;20212;-57
2021/11/30 00:51:10;;;;;;;14.13;11.90;;;;;;;;;;2059583;28;20564;-56
2021/11/30 00:52:11;;;;;;;15.70;14.20;;;;;;;;;;2068172;28;20181;-63
2021/11/30 00:53:13;;;;;;;11.90;10.70;;;;;;;;;;2066600;28;20650;-59
2021/11/30 00:54:15;;;;;;;17.50;13.37;;;;;;;;;;2067211;28;20527;-55
2021/11/30 00:55:15;;;;;;;14.33;13.03;;;;;;;;;;2066789;28;20208;-54
2021/11/30 00:56:16;;;;;;;17.83;13.70;;;;;;;;;;2066975;28;20169;-58
2021/11/30 00:57:17;;;;;;;17.83;13.93;;;;;;;;;;2066571;28;20178;-53
2021/11/30 00:58:18;;;;;;;15.50;13.57;;;;;;;;;;2067288;28;20177;-54
2021/11/30 00:59:19;;;;;;;11.83;10.77;;;;;;;;;;2066900;28;20201;-55
2021/11/30 01:00:20;;;;;;;15.03;12.47;;;;;;;;;;2067121;28;20201;-56
2021/11/30 01:01:20;;;;;;;15.60;11.63;;;;;;;;;;2067055;28;20184;-55
2021/11/30 01:02:21;;;;;;;15.97;13.50;;;;;;;;;;2067238;28;20165;-55
2021/11/30 01:03:21;;;;;;;16.43;12.97;;;;;;;;;;2066686;28;20194;-57
2021/11/30 01:04:21;;;;;;;14.83;13.33;;;;;;;;;;2067247;28;20185;-54
2021/11/30 01:05:22;;;;;;;13.30;12.00;;;;;;;;;;2067576;28;20264;-59
2021/11/30 01:06:22;;;;;;;15.30;13.67;;;;;;;;;;2068356;28;20177;-57
2021/11/30 01:07:23;;;;;;;15.27;10.70;;;;;;;;;;2065775;28;20173;-54
2021/11/30 01:08:23;;;;;;;12.10;10.90;;;;;;;;;;2066650;28;20181;-54
2021/11/30 01:09:24;;;;;;;13.23;11.83;;;;;;;;;;2066653;28;20649;-56
2021/11/30 01:10:24;;;;;;;16.60;13.07;;;;;;;;;;2065463;28;20289;-57
2021/11/30 01:11:25;;;;;;;16.93;13.60;;;;;;;;;;2058015;28;20182;-57
2021/11/30 01:12:25;;;;;;;19.47;13.37;;;;;;;;;;2066293;28;20590;-58
2021/11/30 01:13:25;;;;;;;14.47;12.07;;;;;;;;;;2065978;28;20193;-55
2021/11/30 01:14:26;;;;;;;18.90;12.17;;;;;;;;;;2065345;28;20204;-55
2021/11/30 01:15:26;;;;;;;12.30;10.90;;;;;;;;;;2061845;28;20710;-57
2021/11/30 01:16:26;;;;;;;13.13;11.87;;;;;;;;;;2064596;28;20221;-56
2021/11/30 01:17:27;;;;;;;13.73;11.57;;;;;;;;;;2057058;28;20249;-56
2021/11/30 01:18:27;;;;;;;14.17;12.67;;;;;;;;;;2065896;28;20174;-58
2021/11/30 01:19:28;;;;;;;17.10;11.77;;;;;;;;;;2063691;28;20849;-56
2021/11/30 01:20:28;;;;;;;11.50;10.47;;;;;;;;;;2057196;28;20209;-55
2021/11/30 01:21:29;;;;;;;13.10;10.70;;;;;;;;;;2059734;28;20221;-57
2021/11/30 01:22:29;;;;;;;13.90;12.43;;;;;;;;;;2064784;28;20177;-56
2021/11/30 01:23:30;;;;;;;12.27;10.47;;;;;;;;;;2063788;28;20228;-58
2021/11/30 01:24:30;;;;;;;13.40;12.20;;;;;;;;;;2059777;28;20174;-57
2021/11/30 01:25:31;;;;;;;12.20;11.03;;;;;;;;;;2061553;28;20251;-54
2021/11/30 01:26:33;;;;;;;16.90;11.63;;;;;;;;;;2065536;28;20186;-58
2021/11/30 01:27:33;;;;;;;14.80;10.80;;;;;;;;;;2063991;28;20237;-53
2021/11/30 01:28:33;;;;;;;9.30;8.17;;;;;;;;;;2063411;28;20169;-56
2021/11/30 01:29:34;;;;;;;10.57;9.50;;;;;;;;;;2063516;28;20565;-59
2021/11/30 01:30:34;;;;;;;12.30;11.10;;;;;;;;;;2065643;28;20182;-57
2021/11/30 01:31:35;;;;;;;9.50;8.50;;;;;;;;;;2066159;28;20178;-57
2021/11/30 01:32:35;;;;;;;14.07;9.67;;;;;;;;;;2062421;28;20580;-54
2021/11/30 01:33:36;;;;;;;10.07;8.80;;;;;;;;;;2064158;28;20193;-57
2021/11/30 01:34:36;;;;;;;9.90;8.87;;;;;;;;;;2064875;28;20205;-57
2021/11/30 01:35:37;;;;;;;9.87;8.93;;;;;;;;;;2065012;28;20173;-56
2021/11/30 01:36:37;;;;;;;14.73;8.20;;;;;;;;;;2064594;28;20584;-54
2021/11/30 01:37:39;;;;;;;7.87;7.27;;;;;;;;;;2065664;28;20181;-57
2021/11/30 01:38:39;;;;;;;8.90;8.10;;;;;;;;;;2065956;28;20525;-55
2021/11/30 01:39:41;;;;;;;9.63;8.83;;;;;;;;;;2066111;28;20185;-54
2021/11/30 01:40:42;;;;;;;7.97;7.37;;;;;;;;;;2063567;28;20197;-55
2021/11/30 01:41:44;;;;;;;11.37;6.87;;;;;;;;;;2066120;28;20170;-55
2021/11/30 01:42:46;;;;;;;9.93;6.53;;;;;;;;;;2063234;28;20173;-57
2021/11/30 01:43:47;;;;;;;7.80;6.97;;;;;;;;;;2065252;28;20606;-53
2021/11/30 01:44:50;;;;;;;9.27;7.00;;;;;;;;;;2065033;28;20185;-53
2021/11/30 01:46:12;;;;;;;11.87;6.80;;;;;;;;;;2064807;28;20173;-55
2021/11/30 01:49:48;;;;;;;7.47;6.03;;;;;;;;;;2064688;28;20643;-56
2021/11/30 01:50:48;;;;;;;8.57;5.73;;;;;;;;;;2065188;28;20193;-53
2021/11/30 01:51:49;;;;;;;5.70;5.03;;;;;;;;;;2064045;28;20170;-55
2021/11/30 01:52:50;;;;;;;5.67;5.17;;;;;;;;;;2063598;28;20189;-54
2021/11/30 01:53:51;;;;;;;5.00;4.53;;;;;;;;;;2064934;28;20197;-58
2021/11/30 01:54:51;;;;;;;7.00;5.67;;;;;;;;;;2065509;28;20299;-57
2021/11/30 01:55:52;;;;;;;6.43;5.83;;;;;;;;;;2062569;28;20767;-54
2021/11/30 01:56:52;;;;;;;9.63;5.37;;;;;;;;;;2063399;28;20172;-55
2021/11/30 01:57:53;;;;;;;5.13;4.63;;;;;;;;;;2064669;28;20182;-54
2021/11/30 01:58:53;;;;;;;5.17;4.37;;;;;;;;;;2064435;28;20186;-55
2021/11/30 01:59:55;;;;;;;5.07;4.57;;;;;;;;;;2065089;28;20169;-55
2021/11/30 02:00:55;;;;;;;6.37;4.93;;;;;;;;;;2064323;28;20180;-55
2021/11/30 02:01:55;;;;;;;7.93;5.00;;;;;;;;;;2061240;28;20181;-57
2021/11/30 02:02:56;;;;;;;10.93;5.60;;;;;;;;;;2064659;28;20264;-59
2021/11/30 02:03:56;;;;;;;6.87;5.07;;;;;;;;;;2060172;28;20174;-58
2021/11/30 02:04:56;;;;;;;5.53;4.97;;;;;;;;;;2057756;28;20190;-57
2021/11/30 02:05:57;;;;;;;7.97;4.03;;;;;;;;;;2059036;28;20178;-56
2021/11/30 02:06:57;;;;;;;4.77;4.37;;;;;;;;;;2063916;28;20161;-54
2021/11/30 02:07:57;;;;;;;3.87;3.30;;;;;;;;;;2064666;28;20161;-56
2021/11/30 02:08:58;;;;;;;3.07;2.87;;;;;;;;;;2056874;28;20217;-53
2021/11/30 02:09:58;;;;;;;5.67;4.37;;;;;;;;;;2064695;28;20166;-53
2021/11/30 02:10:59;;;;;;;4.90;3.33;;;;;;;;;;2064784;28;20193;-56
2021/11/30 02:11:59;;;;;;;7.10;4.30;;;;;;;;;;2065423;28;20173;-57
2021/11/30 02:12:59;;;;;;;5.33;3.63;;;;;;;;;;2065743;28;20186;-63
2021/11/30 02:14:00;;;;;;;3.90;3.67;;;;;;;;;;2065498;28;20208;-58
2021/11/30 02:15:01;;;;;;;4.50;3.90;;;;;;;;;;2064950;28;20172;-57
2021/11/30 02:16:03;;;;;;;4.00;3.53;;;;;;;;;;2065774;28;20184;-56
2021/11/30 02:17:06;;;;;;;4.30;3.83;;;;;;;;;;2064711;28;20173;-57
2021/11/30 02:18:12;;;;;;;2.87;2.67;;;;;;;;;;2065301;28;20172;-57
2021/11/30 02:19:13;;;;;;;3.57;3.27;;;;;;;;;;2061197;28;20170;-57
2021/11/30 02:20:13;;;;;;;4.90;3.50;;;;;;;;;;2064908;28;20200;-56
2021/11/30 02:21:14;;;;;;;9.43;3.70;;;;;;;;;;2064698;28;20173;-59
2021/11/30 02:22:14;;;;;;;5.07;4.30;;;;;;;;;;2065998;28;20176;-54
2021/11/30 02:23:31;;;;;;;5.97;3.83;;;;;;;;;;2063860;28;20249;-55
2021/11/30 02:24:31;;;;;;;4.17;3.87;;;;;;;;;;2064962;28;20248;-57
2021/11/30 02:25:32;;;;;;;4.90;4.33;;;;;;;;;;2067813;28;20518;-57
2021/11/30 02:26:34;;;;;;;4.83;4.00;;;;;;;;;;2062757;28;20227;-58
2021/11/30 02:27:34;;;;;;;4.00;3.70;;;;;;;;;;2062129;28;20176;-57
2021/11/30 02:28:35;;;;;;;6.40;5.27;;;;;;;;;;2065963;28;20174;-55
2021/11/30 02:29:36;;;;;;;5.53;5.07;;;;;;;;;;2064866;28;20193;-57
2021/11/30 02:30:36;;;;;;;5.20;4.80;;;;;;;;;;2061005;28;20689;-59
2021/11/30 02:31:39;;;;;;;4.30;4.00;;;;;;;;;;2065193;28;20174;-56
2021/11/30 02:32:39;;;;;;;11.07;5.67;;;;;;;;;;2061598;28;20174;-55
2021/11/30 02:33:39;;;;;;;5.13;4.73;;;;;;;;;;2064057;28;20170;-58
2021/11/30 02:34:40;;;;;;;12.53;6.60;;;;;;;;;;2062042;28;20645;-56
2021/11/30 02:35:41;;;;;;;5.87;5.37;;;;;;;;;;2061897;28;20172;-57
2021/11/30 02:37:48;;;;;;;7.87;6.90;;;;;;;;;;2065450;28;20181;-56
2021/11/30 02:38:49;;;;;;;8.43;6.50;;;;;;;;;;2062700;28;20233;-56
2021/11/30 02:39:49;;;;;;;11.77;8.63;;;;;;;;;;2060692;28;20201;-54
2021/11/30 02:40:49;;;;;;;6.90;5.57;;;;;;;;;;2053804;28;20185;-57
2021/11/30 02:41:51;;;;;;;9.40;7.90;;;;;;;;;;2056790;28;20192;-55
2021/11/30 02:42:52;;;;;;;9.50;8.50;;;;;;;;;;2064397;28;20265;-57
2021/11/30 02:43:52;;;;;;;12.37;9.20;;;;;;;;;;2060614;28;20185;-56
2021/11/30 02:44:53;;;;;;;9.37;8.50;;;;;;;;;;2064282;28;20173;-58
2021/11/30 02:45:53;;;;;;;9.10;8.20;;;;;;;;;;2064440;28;20186;-57
2021/11/30 02:46:57;;;;;;;9.60;7.97;;;;;;;;;;2062860;28;20200;-58
2021/11/30 02:47:58;;;;;;;11.80;8.87;;;;;;;;;;2064304;28;20186;-58
2021/11/30 02:48:59;;;;;;;12.03;9.50;;;;;;;;;;2064417;28;20180;-54
2021/11/30 02:49:59;;;;;;;11.40;9.87;;;;;;;;;;2056910;28;20167;-56
2021/11/30 02:51:05;;;;;;;11.67;8.90;;;;;;;;;;2064026;28;20614;-57
2021/11/30 02:52:14;;;;;;;11.20;9.57;;;;;;;;;;2064586;28;20630;-57
2021/11/30 02:53:20;;;;;;;13.03;10.40;;;;;;;;;;2057360;28;20265;-55
2021/11/30 02:54:22;;;;;;;15.90;12.10;;;;;;;;;;2064545;28;20225;-58
2021/11/30 02:55:23;;;;;;;14.67;11.20;;;;;;;;;;2063911;28;20452;-58
2021/11/30 02:56:23;;;;;;;14.33;11.63;;;;;;;;;;2064713;28;20173;-57
2021/11/30 02:57:24;;;;;;;13.83;12.30;;;;;;;;;;2064522;28;20185;-54
2021/11/30 02:58:24;;;;;;;14.90;12.00;;;;;;;;;;2064033;28;20175;-58
2021/11/30 02:59:26;;;;;;;17.67;12.80;;;;;;;;;;2065332;28;20177;-56
2021/11/30 03:00:26;;;;;;;20.13;12.83;;;;;;;;;;2063951;28;20190;-57
2021/11/30 03:01:26;;;;;;;19.87;13.93;;;;;;;;;;2065292;28;20205;-58
2021/11/30 03:02:28;;;;;;;20.03;14.90;;;;;;;;;;2062425;28;20167;-58
2021/11/30 03:03:28;;;;;;;12.10;10.80;;;;;;;;;;2064671;28;21422;-57
2021/11/30 03:04:29;;;;;;;13.03;10.13;;;;;;;;;;2071822;28;20239;-58
2021/11/30 03:05:29;;;;;;;19.90;16.20;;;;;;;;;;2072442;28;20169;-62
2021/11/30 03:06:32;;;;;;;18.10;13.57;;;;;;;;;;2064623;28;20632;-58
2021/11/30 03:07:38;;;;;;;23.97;17.03;;;;;;;;;;2061053;28;20182;-54
2021/11/30 03:08:39;;;;;;;16.80;14.90;;;;;;;;;;2064305;28;20169;-54
2021/11/30 03:09:40;;;;;;;25.97;16.73;;;;;;;;;;2062749;28;20296;-58
2021/11/30 03:10:41;;;;;;;24.23;17.27;;;;;;;;;;2063672;28;20189;-53
2021/11/30 03:11:41;;;;;;;24.07;17.73;;;;;;;;;;2064365;28;20197;-58
2021/11/30 03:12:42;;;;;;;20.93;16.03;;;;;;;;;;2065114;28;20240;-56
2021/11/30 03:13:42;;;;;;;23.97;13.50;;;;;;;;;;2064712;28;20165;-57
2021/11/30 03:14:42;;;;;;;18.60;15.80;;;;;;;;;;2064303;28;20190;-54
2021/11/30 03:15:43;;;;;;;17.53;15.33;;;;;;;;;;2065324;28;20216;-55
2021/11/30 03:16:44;;;;;;;20.60;15.73;;;;;;;;;;2065337;28;20256;-54
2021/11/30 03:17:45;;;;;;;22.70;16.83;;;;;;;;;;2064900;28;20173;-56
2021/11/30 03:18:46;;;;;;;22.67;17.53;;;;;;;;;;2064454;28;20212;-56
2021/11/30 03:19:46;;;;;;;25.87;18.00;;;;;;;;;;2064316;28;20182;-57
2021/11/30 03:20:47;;;;;;;26.13;17.77;;;;;;;;;;2062476;28;20251;-58
2021/11/30 03:21:47;;;;;;;21.73;15.77;;;;;;;;;;2064522;28;20216;-56
2021/11/30 03:22:47;;;;;;;19.77;15.83;;;;;;;;;;2065004;28;20169;-54
2021/11/30 03:23:48;;;;;;;23.63;17.80;;;;;;;;;;2064704;28;20312;-54
2021/11/30 03:24:48;;;;;;;17.60;14.67;;;;;;;;;;2062417;28;20273;-55
2021/11/30 03:25:48;;;;;;;22.97;17.97;;;;;;;;;;2064932;28;20251;-55
2021/11/30 03:26:49;;;;;;;20.00;15.60;;;;;;;;;;2054524;28;20178;-57
2021/11/30 03:27:50;;;;;;;13.17;10.63;;;;;;;;;;2053367;28;20706;-54
2021/11/30 03:28:50;;;;;;;23.87;17.70;;;;;;;;;;2061967;28;20199;-54
2021/11/30 03:29:52;;;;;;;20.97;14.47;;;;;;;;;;2064731;28;20256;-57
2021/11/30 03:30:57;;;;;;;24.47;19.20;;;;;;;;;;2063754;28;20731;-55
2021/11/30 03:34:26;;;;;;;24.03;19.30;;;;;;;;;;2059724;28;20251;-57
2021/11/30 03:35:27;;;;;;;24.87;17.13;;;;;;;;;;2065505;28;20174;-56
2021/11/30 03:36:31;;;;;;;22.20;18.83;;;;;;;;;;2065391;28;20652;-57
2021/11/30 03:37:32;;;;;;;26.27;19.00;;;;;;;;;;2065581;28;20189;-59
2021/11/30 03:38:32;;;;;;;20.30;15.57;;;;;;;;;;2063983;28;20174;-59
2021/11/30 03:39:33;;;;;;;22.93;18.23;;;;;;;;;;2060466;28;20168;-56
2021/11/30 03:40:33;;;;;;;22.97;18.57;;;;;;;;;;2062002;28;22354;-54
2021/11/30 03:41:34;;;;;;;26.77;19.87;;;;;;;;;;2060489;28;20653;-56
2021/11/30 03:42:34;;;;;;;20.23;16.63;;;;;;;;;;2062936;28;20180;-57
2021/11/30 03:43:35;;;;;;;22.77;19.37;;;;;;;;;;2060999;28;20234;-55
2021/11/30 03:44:35;;;;;;;30.10;19.50;;;;;;;;;;2064522;28;20173;-58
2021/11/30 03:45:35;;;;;;;25.90;20.33;;;;;;;;;;2065022;28;20201;-57
2021/11/30 03:46:36;;;;;;;29.40;22.10;;;;;;;;;;2063938;28;20506;-57
2021/11/30 03:47:36;;;;;;;27.80;20.87;;;;;;;;;;2063810;28;20192;-58
2021/11/30 03:48:37;;;;;;;24.77;19.90;;;;;;;;;;2065349;28;20225;-57
2021/11/30 03:49:37;;;;;;;26.60;19.23;;;;;;;;;;2064225;28;20189;-57
2021/11/30 03:50:37;;;;;;;22.40;18.77;;;;;;;;;;2063886;28;20235;-57
2021/11/30 03:51:38;;;;;;;22.93;18.70;;;;;;;;;;2062429;28;20177;-54
2021/11/30 03:52:38;;;;;;;28.70;19.93;;;;;;;;;;2065712;28;20177;-57
2021/11/30 03:53:39;;;;;;;15.77;12.83;;;;;;;;;;2065641;28;20233;-64
2021/11/30 03:54:39;;;;;;;20.50;16.60;;;;;;;;;;2065816;28;20209;-57
2021/11/30 03:55:39;;;;;;;19.33;15.73;;;;;;;;;;2065743;28;20169;-57
2021/11/30 03:56:40;;;;;;;18.07;14.90;;;;;;;;;;2066238;28;20174;-57
2021/11/30 03:57:40;;;;;;;20.70;14.60;;;;;;;;;;2065918;28;20169;-58
2021/11/30 03:58:41;;;;;;;24.87;16.67;;;;;;;;;;2066428;28;20189;-57
2021/11/30 03:59:41;;;;;;;23.13;17.70;;;;;;;;;;2065991;28;20177;-57
2021/11/30 04:00:42;;;;;;;22.57;17.63;;;;;;;;;;2066052;28;20666;-58
2021/11/30 04:01:42;;;;;;;18.23;15.73;;;;;;;;;;2067096;28;20609;-56
2021/11/30 04:02:42;;;;;;;22.30;18.70;;;;;;;;;;2066187;28;20184;-57
2021/11/30 04:03:43;;;;;;;14.03;11.50;;;;;;;;;;2066095;28;20664;-56
2021/11/30 04:04:45;;;;;;;12.17;10.90;;;;;;;;;;2065986;28;20170;-57
2021/11/30 04:05:45;;;;;;;18.77;10.87;;;;;;;;;;2066015;28;20173;-56
2021/11/30 04:06:48;;;;;;;15.73;13.07;;;;;;;;;;2066124;28;20589;-58
2021/11/30 04:07:48;;;;;;;19.03;16.33;;;;;;;;;;2058220;28;20256;-56
2021/11/30 04:08:49;;;;;;;18.80;12.67;;;;;;;;;;2051415;29;20183;-57
2021/11/30 04:09:50;;;;;;;21.07;16.60;;;;;;;;;;2062561;28;20222;-58
2021/11/30 04:10:50;;;;;;;20.47;16.70;;;;;;;;;;2069824;28;20177;-59
2021/11/30 04:11:51;;;;;;;13.43;10.33;;;;;;;;;;2067242;28;20169;-57
2021/11/30 04:12:51;;;;;;;18.00;16.07;;;;;;;;;;2069974;28;20174;-57
2021/11/30 04:13:52;;;;;;;15.70;13.73;;;;;;;;;;2069751;28;20183;-59
2021/11/30 04:14:52;;;;;;;27.20;18.40;;;;;;;;;;2071013;28;20260;-56
2021/11/30 04:15:52;;;;;;;19.77;16.90;;;;;;;;;;2071787;28;20186;-58
2021/11/30 04:16:53;;;;;;;18.53;14.37;;;;;;;;;;2070794;28;20231;-57
2021/11/30 04:17:54;;;;;;;19.30;17.23;;;;;;;;;;2073002;28;20162;-53
2021/11/30 04:18:54;;;;;;;20.63;16.13;;;;;;;;;;2071467;28;20178;-56
2021/11/30 04:19:54;;;;;;;16.47;14.77;;;;;;;;;;2072040;28;20193;-58
2021/11/30 04:20:55;;;;;;;18.23;16.23;;;;;;;;;;2074186;28;20182;-57
2021/11/30 04:21:55;;;;;;;19.87;15.50;;;;;;;;;;2075003;28;20158;-58
2021/11/30 04:22:55;;;;;;;19.80;16.53;;;;;;;;;;2076151;28;20173;-54
2021/11/30 04:23:56;;;;;;;18.07;16.03;;;;;;;;;;2075452;28;20173;-57
2021/11/30 04:24:56;;;;;;;17.77;15.47;;;;;;;;;;2073791;28;20201;-56
2021/11/30 04:25:56;;;;;;;13.47;12.07;;;;;;;;;;2075138;28;20188;-59
2021/11/30 04:26:57;;;;;;;16.27;13.00;;;;;;;;;;2074007;28;20170;-60
2021/11/30 04:27:57;;;;;;;16.83;11.33;;;;;;;;;;2078895;28;20759;-58
2021/11/30 04:28:57;;;;;;;15.77;14.13;;;;;;;;;;2078792;28;20236;-57
2021/11/30 04:29:58;;;;;;;16.67;14.97;;;;;;;;;;2070800;28;20165;-58
2021/11/30 04:30:59;;;;;;;14.50;12.90;;;;;;;;;;2074259;28;22433;-58
2021/11/30 04:31:59;;;;;;;10.77;9.30;;;;;;;;;;2073749;28;20165;-58
2021/11/30 04:32:59;;;;;;;17.43;12.67;;;;;;;;;;2071382;28;20181;-61
2021/11/30 04:34:02;;;;;;;16.07;13.73;;;;;;;;;;2071398;28;20166;-59
2021/11/30 04:35:03;;;;;;;16.30;14.77;;;;;;;;;;2073007;28;20161;-60
2021/11/30 04:36:06;;;;;;;12.00;10.70;;;;;;;;;;2073694;28;20197;-59
2021/11/30 04:37:06;;;;;;;12.20;10.27;;;;;;;;;;2074662;28;20170;-57
2021/11/30 04:38:06;;;;;;;10.20;9.20;;;;;;;;;;2074222;28;20178;-59
2021/11/30 04:39:07;;;;;;;17.67;14.30;;;;;;;;;;2073065;28;20184;-58
2021/11/30 04:40:08;;;;;;;16.17;14.40;;;;;;;;;;2074169;28;20201;-60
2021/11/30 04:41:09;;;;;;;16.27;14.10;;;;;;;;;;2070778;28;20180;-58
2021/11/30 04:42:09;;;;;;;12.57;11.27;;;;;;;;;;2073241;28;20173;-56
2021/11/30 04:43:10;;;;;;;11.53;10.53;;;;;;;;;;2066102;28;20225;-59
2021/11/30 04:44:11;;;;;;;14.13;12.83;;;;;;;;;;2065149;28;20182;-57
2021/11/30 04:45:18;;;;;;;14.83;13.33;;;;;;;;;;2071363;28;20170;-57
2021/11/30 04:46:25;;;;;;;15.13;13.07;;;;;;;;;;2072249;28;20165;-59
2021/11/30 04:47:29;;;;;;;14.67;13.13;;;;;;;;;;2068556;28;20169;-60
2021/11/30 04:48:32;;;;;;;11.47;10.40;;;;;;;;;;2066629;28;20199;-56
2021/11/30 04:50:36;;;;;;;11.67;10.47;;;;;;;;;;2072050;28;20485;-58
2021/11/30 04:51:36;;;;;;;11.83;10.67;;;;;;;;;;2072408;28;20221;-57
2021/11/30 04:52:39;;;;;;;15.00;13.43;;;;;;;;;;2064990;28;20450;-58
2021/11/30 04:53:42;;;;;;;13.10;11.60;;;;;;;;;;2069880;28;20166;-58
2021/11/30 04:54:42;;;;;;;14.43;11.40;;;;;;;;;;2074372;28;20407;-58
2021/11/30 04:55:42;;;;;;;12.70;10.23;;;;;;;;;;2071855;28;20783;-57
2021/11/30 04:56:43;;;;;;;11.93;10.73;;;;;;;;;;2072237;28;20169;-58
2021/11/30 04:57:43;;;;;;;12.00;10.70;;;;;;;;;;2071367;28;20273;-60
2021/11/30 04:58:44;;;;;;;15.57;13.90;;;;;;;;;;2073793;28;20184;-60
2021/11/30 04:59:44;;;;;;;13.13;11.77;;;;;;;;;;2072939;28;20173;-58
2021/11/30 05:00:46;;;;;;;14.77;13.13;;;;;;;;;;2074328;28;20199;-59
2021/11/30 05:01:47;;;;;;;12.00;10.67;;;;;;;;;;2072404;28;20233;-63
2021/11/30 05:02:48;;;;;;;14.93;12.07;;;;;;;;;;2066645;28;20190;-60
2021/11/30 05:03:49;;;;;;;13.63;11.30;;;;;;;;;;2071081;28;20193;-62
2021/11/30 05:04:49;;;;;;;14.20;12.80;;;;;;;;;;2071482;28;20891;-58
2021/11/30 05:05:50;;;;;;;15.07;13.47;;;;;;;;;;2069662;28;20189;-58
2021/11/30 05:06:50;;;;;;;14.67;13.10;;;;;;;;;;2063581;28;20178;-59
2021/11/30 05:07:50;;;;;;;12.53;11.07;;;;;;;;;;2061714;28;20249;-58
2021/11/30 05:08:51;;;;;;;14.70;13.10;;;;;;;;;;2071217;28;20691;-58
2021/11/30 05:09:51;;;;;;;15.20;13.60;;;;;;;;;;2064425;28;20650;-58
2021/11/30 05:10:51;;;;;;;12.63;11.37;;;;;;;;;;2072183;28;20205;-58
2021/11/30 05:11:52;;;;;;;16.43;14.07;;;;;;;;;;2063460;28;20189;-59
2021/11/30 05:12:52;;;;;;;12.90;11.60;;;;;;;;;;2070905;28;20177;-59
2021/11/30 05:13:53;;;;;;;12.47;10.03;;;;;;;;;;2071265;28;20188;-58
2021/11/30 05:14:53;;;;;;;15.17;13.67;;;;;;;;;;2054912;29;20198;-58
2021/11/30 05:15:54;;;;;;;13.80;12.37;;;;;;;;;;2063511;28;20281;-59
2021/11/30 05:16:54;;;;;;;14.67;12.33;;;;;;;;;;2073180;28;20220;-59
2021/11/30 05:17:55;;;;;;;12.83;11.53;;;;;;;;;;2078493;28;20161;-56
2021/11/30 05:18:55;;;;;;;13.00;11.47;;;;;;;;;;2076519;28;20188;-58
2021/11/30 05:19:56;;;;;;;13.83;12.43;;;;;;;;;;2072156;28;20200;-58
2021/11/30 05:20:59;;;;;;;11.60;9.40;;;;;;;;;;2074929;28;20257;-58
2021/11/30 05:21:59;;;;;;;13.40;11.93;;;;;;;;;;2078041;28;20177;-59
2021/11/30 05:23:00;;;;;;;11.33;10.17;;;;;;;;;;2071917;28;20161;-63
2021/11/30 05:24:05;;;;;;;13.97;11.90;;;;;;;;;;2071135;28;20177;-57
2021/11/30 05:25:07;;;;;;;12.67;11.47;;;;;;;;;;2072740;28;20173;-59
2021/11/30 05:26:08;;;;;;;13.17;11.77;;;;;;;;;;2071444;28;20166;-59
2021/11/30 05:27:08;;;;;;;15.43;13.80;;;;;;;;;;2071589;28;20184;-60
2021/11/30 05:28:09;;;;;;;13.00;11.70;;;;;;;;;;2067650;28;20193;-57
2021/11/30 05:29:09;;;;;;;14.90;13.30;;;;;;;;;;2067701;28;20164;-59
2021/11/30 05:30:14;;;;;;;14.40;12.83;;;;;;;;;;2068462;28;20692;-59
2021/11/30 05:31:14;;;;;;;16.27;14.50;;;;;;;;;;2068060;28;20193;-58
2021/11/30 05:32:15;;;;;;;14.50;12.53;;;;;;;;;;2067346;28;20728;-58
2021/11/30 05:33:15;;;;;;;14.57;12.90;;;;;;;;;;2067743;28;20240;-58
2021/11/30 05:34:17;;;;;;;10.67;9.63;;;;;;;;;;2058333;28;20174;-59
2021/11/30 05:35:17;;;;;;;15.83;14.23;;;;;;;;;;2075091;28;20180;-58
2021/11/30 05:36:18;;;;;;;16.60;14.77;;;;;;;;;;2074746;28;20188;-58
2021/11/30 05:37:18;;;;;;;16.60;14.63;;;;;;;;;;2074564;28;20204;-58
2021/11/30 05:38:19;;;;;;;14.93;12.13;;;;;;;;;;2067742;28;20217;-59
2021/11/30 05:39:19;;;;;;;11.87;10.57;;;;;;;;;;2067922;28;20176;-58
2021/11/30 05:40:19;;;;;;;13.50;12.00;;;;;;;;;;2069533;28;20249;-58
2021/11/30 05:41:20;;;;;;;15.10;12.60;;;;;;;;;;2075058;28;20172;-58
2021/11/30 05:42:20;;;;;;;13.30;11.93;;;;;;;;;;2072370;28;20196;-58
2021/11/30 05:43:20;;;;;;;12.57;11.27;;;;;;;;;;2059090;28;20233;-55
2021/11/30 05:44:21;;;;;;;16.83;14.43;;;;;;;;;;2067130;28;20161;-55
2021/11/30 05:45:21;;;;;;;15.40;13.80;;;;;;;;;;2066738;28;20272;-58
2021/11/30 05:46:22;;;;;;;12.10;9.87;;;;;;;;;;2060938;28;20174;-58
2021/11/30 05:47:22;;;;;;;12.67;11.43;;;;;;;;;;2067410;28;20177;-57
2021/11/30 05:48:23;;;;;;;16.13;14.20;;;;;;;;;;2071103;28;20276;-58
2021/11/30 05:49:23;;;;;;;14.27;12.37;;;;;;;;;;2058350;28;20222;-57
2021/11/30 05:50:23;;;;;;;11.93;10.70;;;;;;;;;;2065973;28;20212;-54
2021/11/30 05:51:24;;;;;;;15.77;14.17;;;;;;;;;;2065996;28;20212;-57
2021/11/30 05:52:24;;;;;;;15.23;13.73;;;;;;;;;;2067014;28;20576;-57
2021/11/30 05:53:25;;;;;;;15.17;13.57;;;;;;;;;;2074153;28;20172;-57
2021/11/30 05:54:25;;;;;;;15.00;13.40;;;;;;;;;;2060390;28;20186;-54
2021/11/30 05:55:25;;;;;;;16.10;13.83;;;;;;;;;;2066069;28;20215;-58
2021/11/30 05:56:26;;;;;;;16.70;13.93;;;;;;;;;;2070772;28;20196;-59
2021/11/30 05:57:27;;;;;;;16.13;13.43;;;;;;;;;;2065800;28;20185;-59
2021/11/30 05:58:29;;;;;;;13.33;11.33;;;;;;;;;;2066822;28;20170;-55
2021/11/30 05:59:35;;;;;;;13.47;11.87;;;;;;;;;;2067968;28;20174;-56
2021/11/30 06:00:35;;;;;;;9.77;8.73;;;;;;;;;;2065780;28;20185;-57
2021/11/30 06:01:36;;;;;;;11.07;9.97;;;;;;;;;;2065632;28;20189;-57
2021/11/30 06:04:00;;;;;;;12.53;11.27;;;;;;;;;;2056922;28;20273;-57
2021/11/30 06:05:01;;;;;;;15.20;13.60;;;;;;;;;;2072293;28;20197;-58
2021/11/30 06:06:01;;;;;;;14.67;13.07;;;;;;;;;;2067542;28;20169;-58
2021/11/30 06:07:02;;;;;;;18.43;13.73;;;;;;;;;;2066321;28;20905;-56
2021/11/30 06:08:03;;;;;;;13.03;11.33;;;;;;;;;;2066580;28;20618;-59